createdAt,value
2022-08-01T00:00:18.166Z,99394.09
2022-08-01T00:01:21.110Z,99395.34
2022-08-01T00:02:23.736Z,99386.86
2022-08-01T00:03:26.284Z,99396.16
2022-08-01T00:04:28.571Z,99395.88
2022-08-01T00:05:31.091Z,99397.82
2022-08-01T00:06:33.873Z,99397.25
2022-08-01T00:07:36.228Z,99392.97
2022-08-01T00:08:39.003Z,99393.39
2022-08-01T00:09:41.094Z,99390.87
2022-08-01T00:10:44.485Z,99395.88
2022-08-01T00:11:46.813Z,99389.32
2022-08-01T00:12:51.123Z,99400.59
2022-08-01T00:13:54.411Z,99394.20
2022-08-01T00:14:56.846Z,99385.47
2022-08-01T00:15:59.241Z,99385.47
2022-08-01T00:17:07.090Z,99391.56
2022-08-01T00:18:06.004Z,99388.92
2022-08-01T00:19:08.206Z,99386.86
2022-08-01T00:20:15.135Z,99393.95
2022-08-01T00:21:17.967Z,99389.52
2022-08-01T00:22:20.187Z,99384.26
2022-08-01T00:23:22.438Z,99393.70
2022-08-01T00:24:24.584Z,99395.38
2022-08-01T00:25:33.752Z,99386.75
2022-08-01T00:26:32.164Z,99394.52
2022-08-01T00:27:37.616Z,99393.70
2022-08-01T00:28:38.519Z,99392.03
2022-08-01T00:30:12.079Z,99388.01
2022-08-01T00:30:44.999Z,99385.37
2022-08-01T00:31:47.287Z,99391.77
2022-08-01T00:32:49.283Z,99392.03
2022-08-01T00:33:51.879Z,99384.81
2022-08-01T00:34:54.346Z,99384.81
2022-08-01T00:35:56.509Z,99385.38
2022-08-01T00:36:58.722Z,99388.14
2022-08-01T00:38:00.913Z,99382.30
2022-08-01T00:39:03.593Z,99387.58
2022-08-01T00:40:07.783Z,99383.56
2022-08-01T00:41:10.152Z,99385.64
2022-08-01T00:42:13.335Z,99380.89
2022-08-01T00:43:15.900Z,99387.14
2022-08-01T00:44:17.860Z,99381.45
2022-08-01T00:45:20.831Z,99383.23
2022-08-01T00:46:23.235Z,99379.77
2022-08-01T00:47:25.418Z,99382.55
2022-08-01T00:48:27.727Z,99378.66
2022-08-01T00:49:30.344Z,99379.36
2022-08-01T00:50:33.453Z,99376.72
2022-08-01T00:51:35.719Z,99375.76
2022-08-01T00:52:39.913Z,99376.72
2022-08-01T00:53:51.231Z,99376.02
2022-08-01T00:54:47.412Z,99376.72
2022-08-01T00:55:49.731Z,99371.45
2022-08-01T00:56:52.078Z,99377.84
2022-08-01T00:58:03.884Z,99377.28
2022-08-01T00:58:59.155Z,99376.28
2022-08-01T01:00:01.521Z,99370.89
2022-08-01T01:01:03.902Z,99372.26
2022-08-01T01:02:14.622Z,99367.95
2022-08-01T01:03:10.901Z,99367.80
2022-08-01T01:04:13.671Z,99376.95
2022-08-01T01:05:15.874Z,99368.88
2022-08-01T01:06:29.001Z,99375.83
2022-08-01T01:07:56.357Z,99377.76
2022-08-01T01:09:04.842Z,99371.92
2022-08-01T01:10:27.969Z,99379.24
2022-08-01T01:11:37.000Z,99379.67
2022-08-01T01:12:50.260Z,99375.44
2022-08-01T01:13:59.141Z,99369.60
2022-08-01T01:15:13.596Z,99370.45
2022-08-01T01:16:20.441Z,99368.67
2022-08-01T01:17:50.681Z,99377.72
2022-08-01T01:18:36.879Z,99375.78
2022-08-01T01:19:43.073Z,99378.84
2022-08-01T01:20:49.045Z,99378.59
2022-08-01T01:23:23.943Z,99377.50
2022-08-01T01:24:35.377Z,99384.44
2022-08-01T01:25:42.143Z,99382.61
2022-08-01T01:26:48.045Z,99385.25
2022-08-01T01:28:00.061Z,99379.72
2022-08-01T01:29:25.279Z,99383.33
2022-08-01T01:30:30.359Z,99382.47
2022-08-01T01:31:48.487Z,99381.91
2022-08-01T01:32:52.489Z,99384.55
2022-08-01T01:33:57.721Z,99388.45
2022-08-01T01:35:03.794Z,99392.91
2022-08-01T01:36:11.677Z,99385.82
2022-08-01T01:37:17.603Z,99386.67
2022-08-01T01:39:35.116Z,99385.42
2022-08-01T01:40:38.586Z,99386.78
2022-08-01T01:41:43.229Z,99390.53
2022-08-01T01:42:47.959Z,99390.53
2022-08-01T01:43:52.258Z,99390.27
2022-08-01T01:44:55.221Z,99385.56
2022-08-01T01:45:57.897Z,99384.45
2022-08-01T01:47:01.396Z,99386.13
2022-08-01T01:48:07.922Z,99391.41
2022-08-01T01:49:11.603Z,99394.45
2022-08-01T01:50:15.373Z,99389.59
2022-08-01T01:51:20.147Z,99388.77
2022-08-01T01:52:24.750Z,99386.38
2022-08-01T01:53:29.071Z,99381.11
2022-08-01T01:54:34.733Z,99385.27
2022-08-01T01:55:49.717Z,99382.49
2022-08-01T01:56:44.652Z,99387.77
2022-08-01T01:57:47.737Z,99388.48
2022-08-01T01:58:53.461Z,99384.88
2022-08-01T01:59:57.468Z,99391.67
2022-08-01T02:01:02.829Z,99389.73
2022-08-01T02:02:07.065Z,99382.78
2022-08-01T02:03:11.939Z,99387.09
2022-08-01T02:04:14.824Z,99388.77
2022-08-01T02:05:17.216Z,99391.52
2022-08-01T02:06:21.941Z,99392.48
2022-08-01T02:07:26.662Z,99389.84
2022-08-01T02:08:31.767Z,99389.98
2022-08-01T02:09:38.187Z,99395.66
2022-08-01T02:10:41.680Z,99394.70
2022-08-01T02:12:07.652Z,99394.27
2022-08-01T02:12:51.319Z,99382.20
2022-08-01T02:14:02.667Z,99395.63
2022-08-01T02:15:06.356Z,99387.12
2022-08-01T02:16:09.840Z,99389.77
2022-08-01T02:17:15.520Z,99385.73
2022-08-01T02:18:17.776Z,99387.66
2022-08-01T02:19:21.888Z,99388.52
2022-08-01T02:20:27.244Z,99386.27
2022-08-01T02:21:33.053Z,99386.66
2022-08-01T02:22:41.071Z,99384.45
2022-08-01T02:23:44.329Z,99387.41
2022-08-01T02:24:52.731Z,99382.13
2022-08-01T02:26:09.403Z,99381.17
2022-08-01T02:27:05.539Z,99382.95
2022-08-01T02:28:21.529Z,99378.79
2022-08-01T02:29:27.379Z,99375.33
2022-08-01T02:30:36.438Z,99380.18
2022-08-01T02:31:41.681Z,99376.58
2022-08-01T02:32:50.537Z,99376.58
2022-08-01T02:34:02.304Z,99381.59
2022-08-01T02:35:07.689Z,99374.05
2022-08-01T02:36:30.375Z,99372.17
2022-08-01T02:37:19.393Z,99374.91
2022-08-01T02:38:24.980Z,99371.13
2022-08-01T02:39:31.372Z,99375.30
2022-08-01T02:40:36.472Z,99369.31
2022-08-01T02:41:41.787Z,99371.95
2022-08-01T02:42:50.601Z,99372.52
2022-08-01T02:43:55.320Z,99373.77
2022-08-01T02:44:57.783Z,99371.95
2022-08-01T02:46:03.140Z,99374.01
2022-08-01T02:47:06.213Z,99369.68
2022-08-01T02:48:14.067Z,99372.17
2022-08-01T02:49:18.904Z,99373.33
2022-08-01T02:50:24.763Z,99379.98
2022-08-01T02:51:28.775Z,99374.19
2022-08-01T02:52:33.184Z,99373.66
2022-08-01T02:53:44.047Z,99368.92
2022-08-01T02:54:44.847Z,99369.88
2022-08-01T02:55:48.020Z,99375.86
2022-08-01T02:56:52.048Z,99374.91
2022-08-01T02:57:56.731Z,99379.50
2022-08-01T02:58:59.658Z,99377.01
2022-08-01T03:00:05.068Z,99377.54
2022-08-01T03:01:10.606Z,99378.64
2022-08-01T03:02:14.693Z,99380.27
2022-08-01T03:03:18.177Z,99374.47
2022-08-01T03:04:22.318Z,99380.89
2022-08-01T03:05:26.601Z,99380.36
2022-08-01T03:06:30.288Z,99381.64
2022-08-01T03:07:34.549Z,99382.03
2022-08-01T03:08:40.342Z,99377.33
2022-08-01T03:09:45.204Z,99370.70
2022-08-01T03:10:48.851Z,99375.72
2022-08-01T03:11:52.875Z,99384.98
2022-08-01T03:12:57.467Z,99376.48
2022-08-01T03:14:03.031Z,99376.27
2022-08-01T03:15:07.940Z,99374.05
2022-08-01T03:16:13.873Z,99378.79
2022-08-01T03:17:18.652Z,99375.91
2022-08-01T03:18:24.240Z,99377.43
2022-08-01T03:19:28.400Z,99385.48
2022-08-01T03:20:33.801Z,99387.72
2022-08-01T03:21:37.276Z,99383.02
2022-08-01T03:22:42.172Z,99381.80
2022-08-01T03:23:47.317Z,99390.27
2022-08-01T03:24:53.480Z,99388.31
2022-08-01T03:25:57.758Z,99388.60
2022-08-01T03:27:01.859Z,99387.34
2022-08-01T03:28:06.395Z,99394.58
2022-08-01T03:29:14.911Z,99390.27
2022-08-01T03:30:17.454Z,99390.13
2022-08-01T03:31:19.824Z,99388.17
2022-08-01T03:32:24.490Z,99386.92
2022-08-01T03:33:27.402Z,99389.16
2022-08-01T03:34:30.681Z,99395.00
2022-08-01T03:35:39.199Z,99384.45
2022-08-01T03:37:00.284Z,99391.41
2022-08-01T03:38:19.486Z,99392.78
2022-08-01T03:39:12.065Z,99390.56
2022-08-01T03:40:18.353Z,99387.67
2022-08-01T03:41:25.990Z,99386.41
2022-08-01T03:42:35.758Z,99384.33
2022-08-01T03:43:59.369Z,99381.69
2022-08-01T03:45:14.113Z,99389.75
2022-08-01T03:46:21.068Z,99390.41
2022-08-01T03:47:26.763Z,99389.02
2022-08-01T03:48:31.699Z,99395.97
2022-08-01T03:49:37.508Z,99386.38
2022-08-01T03:50:43.385Z,99390.30
2022-08-01T03:51:48.673Z,99393.35
2022-08-01T03:52:51.999Z,99382.54
2022-08-01T03:53:57.990Z,99381.43
2022-08-01T03:55:06.204Z,99386.97
2022-08-01T03:56:11.173Z,99395.73
2022-08-01T03:57:35.571Z,99385.86
2022-08-01T03:58:20.089Z,99383.36
2022-08-01T03:59:23.105Z,99375.30
2022-08-01T04:00:26.838Z,99379.75
2022-08-01T04:01:31.331Z,99382.39
2022-08-01T04:02:33.950Z,99383.92
2022-08-01T04:03:41.703Z,99381.13
2022-08-01T04:04:42.148Z,99379.05
2022-08-01T04:05:44.834Z,99372.81
2022-08-01T04:06:47.286Z,99377.53
2022-08-01T04:07:51.008Z,99377.53
2022-08-01T04:08:54.562Z,99377.13
2022-08-01T04:09:58.073Z,99379.20
2022-08-01T04:11:01.484Z,99379.91
2022-08-01T04:12:11.951Z,99378.66
2022-08-01T04:13:07.873Z,99387.28
2022-08-01T04:14:09.952Z,99375.87
2022-08-01T04:15:13.258Z,99381.45
2022-08-01T04:16:17.205Z,99377.84
2022-08-01T04:17:19.745Z,99378.95
2022-08-01T04:18:22.068Z,99382.56
2022-08-01T04:19:24.853Z,99380.48
2022-08-01T04:20:27.155Z,99379.52
2022-08-01T04:21:32.848Z,99382.56
2022-08-01T04:22:37.388Z,99380.05
2022-08-01T04:23:43.027Z,99375.35
2022-08-01T04:24:47.809Z,99376.77
2022-08-01T04:25:51.583Z,99375.09
2022-08-01T04:26:55.023Z,99376.77
2022-08-01T04:27:59.521Z,99368.28
2022-08-01T04:29:05.530Z,99374.27
2022-08-01T04:30:10.628Z,99365.08
2022-08-01T04:31:17.590Z,99368.42
2022-08-01T04:32:23.205Z,99362.84
2022-08-01T04:33:28.628Z,99364.81
2022-08-01T04:34:33.658Z,99372.17
2022-08-01T04:36:04.149Z,99372.84
2022-08-01T04:36:44.310Z,99368.98
2022-08-01T04:37:49.129Z,99367.45
2022-08-01T04:38:54.977Z,99372.03
2022-08-01T04:39:59.090Z,99365.34
2022-08-01T04:41:08.629Z,99359.80
2022-08-01T04:42:08.207Z,99364.66
2022-08-01T04:43:11.363Z,99371.47
2022-08-01T04:44:14.669Z,99360.64
2022-08-01T04:45:18.595Z,99369.23
2022-08-01T04:46:22.678Z,99370.91
2022-08-01T04:47:26.637Z,99367.30
2022-08-01T04:48:29.443Z,99364.80
2022-08-01T04:49:32.958Z,99365.62
2022-08-01T04:50:37.650Z,99362.84
2022-08-01T04:51:54.921Z,99364.52
2022-08-01T04:52:58.138Z,99367.16
2022-08-01T04:54:00.901Z,99370.09
2022-08-01T04:55:05.109Z,99364.52
2022-08-01T04:56:07.592Z,99367.86
2022-08-01T04:57:09.852Z,99369.65
2022-08-01T04:58:17.863Z,99360.91
2022-08-01T04:59:20.074Z,99375.78
2022-08-01T05:00:23.179Z,99368.83
2022-08-01T05:01:25.615Z,99367.56
2022-08-01T05:02:27.832Z,99371.45
2022-08-01T05:03:31.928Z,99373.28
2022-08-01T05:04:35.566Z,99370.34
2022-08-01T05:05:37.759Z,99371.04
2022-08-01T05:06:40.213Z,99374.39
2022-08-01T05:07:45.402Z,99364.22
2022-08-01T05:08:46.305Z,99367.41
2022-08-01T05:09:48.433Z,99369.48
2022-08-01T05:10:50.996Z,99370.30
2022-08-01T05:11:53.867Z,99368.36
2022-08-01T05:12:56.025Z,99366.99
2022-08-01T05:13:58.190Z,99367.56
2022-08-01T05:15:00.527Z,99368.11
2022-08-01T05:16:02.753Z,99376.44
2022-08-01T05:17:07.126Z,99368.09
2022-08-01T05:18:09.917Z,99363.91
2022-08-01T05:19:13.001Z,99364.56
2022-08-01T05:20:15.633Z,99372.07
2022-08-01T05:21:18.542Z,99362.32
2022-08-01T05:22:20.864Z,99361.34
2022-08-01T05:23:36.527Z,99362.44
2022-08-01T05:24:28.463Z,99361.89
2022-08-01T05:25:57.117Z,99367.72
2022-08-01T05:26:37.722Z,99368.69
2022-08-01T05:27:40.038Z,99369.08
2022-08-01T05:28:42.820Z,99361.53
2022-08-01T05:29:45.338Z,99362.61
2022-08-01T05:30:47.994Z,99365.64
2022-08-01T05:31:51.901Z,99360.66
2022-08-01T05:32:53.871Z,99360.07
2022-08-01T05:33:56.258Z,99361.15
2022-08-01T05:34:58.444Z,99363.04
2022-08-01T05:36:00.607Z,99364.27
2022-08-01T05:37:02.955Z,99361.72
2022-08-01T05:38:05.291Z,99356.80
2022-08-01T05:39:07.913Z,99357.88
2022-08-01T05:40:12.300Z,99357.30
2022-08-01T05:41:14.619Z,99356.00
2022-08-01T05:42:17.341Z,99357.83
2022-08-01T05:43:20.090Z,99356.41
2022-08-01T05:44:22.264Z,99361.70
2022-08-01T05:45:24.964Z,99368.95
2022-08-01T05:46:27.792Z,99366.14
2022-08-01T05:47:29.868Z,99362.23
2022-08-01T05:48:32.562Z,99363.05
2022-08-01T05:49:34.839Z,99371.97
2022-08-01T05:50:37.182Z,99368.63
2022-08-01T05:51:39.292Z,99367.90
2022-08-01T05:52:41.448Z,99364.11
2022-08-01T05:53:43.709Z,99365.78
2022-08-01T05:54:45.812Z,99367.90
2022-08-01T05:55:49.057Z,99358.98
2022-08-01T05:56:51.203Z,99358.49
2022-08-01T05:57:54.221Z,99359.55
2022-08-01T05:58:56.355Z,99365.91
2022-08-01T05:59:58.390Z,99357.59
2022-08-01T06:01:01.784Z,99358.28
2022-08-01T06:02:04.518Z,99365.91
2022-08-01T06:03:09.170Z,99365.61
2022-08-01T06:04:11.293Z,99353.25
2022-08-01T06:05:13.767Z,99359.08
2022-08-01T06:06:17.923Z,99358.46
2022-08-01T06:07:20.068Z,99353.23
2022-08-01T06:08:22.209Z,99356.23
2022-08-01T06:09:25.414Z,99350.94
2022-08-01T06:10:27.803Z,99353.75
2022-08-01T06:11:29.877Z,99352.93
2022-08-01T06:12:35.619Z,99354.56
2022-08-01T06:13:45.281Z,99351.62
2022-08-01T06:14:42.219Z,99349.19
2022-08-01T06:15:44.350Z,99348.43
2022-08-01T06:16:47.656Z,99348.09
2022-08-01T06:17:49.813Z,99344.52
2022-08-01T06:18:56.530Z,99342.90
2022-08-01T06:19:56.109Z,99343.25
2022-08-01T06:20:58.515Z,99347.78
2022-08-01T06:22:01.328Z,99346.97
2022-08-01T06:23:22.530Z,99346.64
2022-08-01T06:24:09.138Z,99348.00
2022-08-01T06:25:11.357Z,99346.67
2022-08-01T06:26:16.280Z,99350.02
2022-08-01T06:27:22.001Z,99355.63
2022-08-01T06:28:23.798Z,99354.33
2022-08-01T06:29:26.340Z,99347.70
2022-08-01T06:30:30.740Z,99347.77
2022-08-01T06:31:34.114Z,99347.77
2022-08-01T06:32:36.498Z,99339.50
2022-08-01T06:33:38.768Z,99343.48
2022-08-01T06:34:40.933Z,99343.78
2022-08-01T06:35:43.180Z,99347.80
2022-08-01T06:36:45.639Z,99347.12
2022-08-01T06:37:47.905Z,99352.42
2022-08-01T06:38:50.076Z,99347.97
2022-08-01T06:39:52.282Z,99345.45
2022-08-01T06:40:54.778Z,99343.81
2022-08-01T06:41:58.185Z,99342.52
2022-08-01T06:43:01.553Z,99349.80
2022-08-01T06:44:04.808Z,99340.67
2022-08-01T06:45:12.929Z,99344.52
2022-08-01T06:46:16.461Z,99334.23
2022-08-01T06:47:18.591Z,99335.55
2022-08-01T06:48:21.866Z,99327.28
2022-08-01T06:49:25.521Z,99331.08
2022-08-01T06:50:28.654Z,99335.06
2022-08-01T06:51:32.136Z,99327.74
2022-08-01T06:52:34.478Z,99326.95
2022-08-01T06:53:37.842Z,99324.29
2022-08-01T06:54:39.937Z,99329.25
2022-08-01T06:55:43.275Z,99316.98
2022-08-01T06:56:45.527Z,99325.95
2022-08-01T06:57:50.399Z,99325.64
2022-08-01T06:58:54.732Z,99322.98
2022-08-01T06:59:57.192Z,99331.59
2022-08-01T07:00:59.780Z,99325.80
2022-08-01T07:02:02.316Z,99319.17
2022-08-01T07:03:05.484Z,99330.63
2022-08-01T07:04:07.555Z,99331.44
2022-08-01T07:05:09.754Z,99331.13
2022-08-01T07:06:12.765Z,99322.34
2022-08-01T07:07:16.983Z,99322.66
2022-08-01T07:08:19.149Z,99331.97
2022-08-01T07:09:21.391Z,99329.46
2022-08-01T07:10:24.880Z,99325.81
2022-08-01T07:11:26.972Z,99328.30
2022-08-01T07:12:28.996Z,99334.10
2022-08-01T07:13:36.870Z,99333.60
2022-08-01T07:14:35.807Z,99333.60
2022-08-01T07:15:37.917Z,99318.14
2022-08-01T07:16:40.795Z,99327.11
2022-08-01T07:17:43.465Z,99323.46
2022-08-01T07:18:47.208Z,99325.94
2022-08-01T07:19:49.201Z,99328.28
2022-08-01T07:20:52.908Z,99331.92
2022-08-01T07:21:55.572Z,99328.27
2022-08-01T07:22:57.737Z,99326.60
2022-08-01T07:24:02.899Z,99325.92
2022-08-01T07:25:07.580Z,99329.57
2022-08-01T07:26:10.080Z,99328.27
2022-08-01T07:27:23.810Z,99327.58
2022-08-01T07:28:16.814Z,99332.22
2022-08-01T07:29:20.043Z,99330.05
2022-08-01T07:30:23.526Z,99332.90
2022-08-01T07:31:29.421Z,99331.10
2022-08-01T07:32:30.349Z,99327.28
2022-08-01T07:33:48.063Z,99325.13
2022-08-01T07:34:37.062Z,99325.13
2022-08-01T07:35:39.535Z,99318.31
2022-08-01T07:36:41.744Z,99324.80
2022-08-01T07:37:48.137Z,99320.30
2022-08-01T07:38:48.162Z,99324.27
2022-08-01T07:39:51.699Z,99315.80
2022-08-01T07:40:54.164Z,99310.84
2022-08-01T07:42:07.406Z,99317.63
2022-08-01T07:43:00.721Z,99315.64
2022-08-01T07:44:04.862Z,99321.42
2022-08-01T07:45:08.523Z,99319.59
2022-08-01T07:46:11.921Z,99315.88
2022-08-01T07:47:14.686Z,99315.08
2022-08-01T07:48:16.864Z,99320.88
2022-08-01T07:49:19.167Z,99313.23
2022-08-01T07:50:23.521Z,99316.53
2022-08-01T07:51:25.661Z,99310.62
2022-08-01T07:52:28.541Z,99310.62
2022-08-01T07:53:30.749Z,99314.29
2022-08-01T07:54:34.424Z,99315.95
2022-08-01T07:55:38.664Z,99316.80
2022-08-01T07:56:40.967Z,99314.44
2022-08-01T07:57:43.348Z,99311.38
2022-08-01T07:58:46.401Z,99307.53
2022-08-01T07:59:48.532Z,99312.33
2022-08-01T08:00:51.215Z,99313.11
2022-08-01T08:01:55.889Z,99307.42
2022-08-01T08:02:59.309Z,99312.52
2022-08-01T08:04:02.925Z,99307.66
2022-08-01T08:05:07.480Z,99314.41
2022-08-01T08:06:12.163Z,99312.50
2022-08-01T08:07:14.413Z,99309.97
2022-08-01T08:08:16.621Z,99314.26
2022-08-01T08:09:20.156Z,99309.59
2022-08-01T08:10:23.749Z,99310.14
2022-08-01T08:11:26.304Z,99308.84
2022-08-01T08:12:30.835Z,99314.47
2022-08-01T08:13:33.176Z,99310.52
2022-08-01T08:14:36.683Z,99305.66
2022-08-01T08:15:38.694Z,99305.42
2022-08-01T08:16:40.843Z,99304.57
2022-08-01T08:17:43.296Z,99307.13
2022-08-01T08:18:48.539Z,99305.53
2022-08-01T08:19:50.805Z,99307.19
2022-08-01T08:20:53.313Z,99306.13
2022-08-01T08:21:55.858Z,99300.09
2022-08-01T08:22:59.888Z,99297.33
2022-08-01T08:24:02.100Z,99294.52
2022-08-01T08:25:05.122Z,99294.98
2022-08-01T08:26:09.510Z,99296.05
2022-08-01T08:27:11.824Z,99293.38
2022-08-01T08:28:14.023Z,99296.52
2022-08-01T08:29:16.413Z,99285.73
2022-08-01T08:30:19.597Z,99291.72
2022-08-01T08:31:50.908Z,99294.10
2022-08-01T08:32:27.745Z,99286.39
2022-08-01T08:33:30.444Z,99289.19
2022-08-01T08:34:35.897Z,99290.94
2022-08-01T08:35:53.638Z,99289.66
2022-08-01T08:36:49.051Z,99288.81
2022-08-01T08:37:56.027Z,99290.41
2022-08-01T08:39:01.875Z,99289.48
2022-08-01T08:40:05.853Z,99280.95
2022-08-01T08:41:10.165Z,99277.47
2022-08-01T08:42:12.358Z,99279.67
2022-08-01T08:43:16.417Z,99283.81
2022-08-01T08:44:21.182Z,99277.09
2022-08-01T08:45:30.939Z,99277.09
2022-08-01T08:46:28.935Z,99283.66
2022-08-01T08:47:34.479Z,99282.77
2022-08-01T08:48:37.724Z,99282.38
2022-08-01T08:49:44.747Z,99284.70
2022-08-01T08:50:52.508Z,99284.23
2022-08-01T08:51:58.854Z,99287.83
2022-08-01T08:53:02.303Z,99289.56
2022-08-01T08:54:08.196Z,99278.36
2022-08-01T08:55:12.385Z,99277.16
2022-08-01T08:56:16.687Z,99288.83
2022-08-01T08:57:20.841Z,99291.61
2022-08-01T08:58:31.500Z,99277.69
2022-08-01T08:59:30.142Z,99283.33
2022-08-01T09:00:35.457Z,99279.27
2022-08-01T09:01:37.693Z,99280.18
2022-08-01T09:02:44.426Z,99281.28
2022-08-01T09:03:47.684Z,99277.03
2022-08-01T09:04:51.681Z,99279.43
2022-08-01T09:05:53.966Z,99283.30
2022-08-01T09:06:57.210Z,99286.52
2022-08-01T09:08:00.695Z,99286.02
2022-08-01T09:09:04.281Z,99292.47
2022-08-01T09:10:09.309Z,99283.05
2022-08-01T09:11:13.910Z,99286.56
2022-08-01T09:12:18.103Z,99290.16
2022-08-01T09:13:20.700Z,99277.91
2022-08-01T09:14:23.574Z,99289.40
2022-08-01T09:15:45.498Z,99284.00
2022-08-01T09:17:03.624Z,99288.84
2022-08-01T09:18:06.293Z,99289.38
2022-08-01T09:19:39.488Z,99290.50
2022-08-01T09:20:23.514Z,99295.64
2022-08-01T09:21:26.619Z,99289.48
2022-08-01T09:22:33.664Z,99295.02
2022-08-01T09:23:53.542Z,99287.83
2022-08-01T09:24:59.679Z,99291.51
2022-08-01T09:26:02.041Z,99286.25
2022-08-01T09:27:22.099Z,99292.07
2022-08-01T09:28:29.844Z,99292.36
2022-08-01T09:29:38.293Z,99296.09
2022-08-01T09:30:40.263Z,99290.13
2022-08-01T09:31:47.317Z,99291.59
2022-08-01T09:32:58.546Z,99297.75
2022-08-01T09:34:03.499Z,99291.00
2022-08-01T09:35:30.103Z,99287.60
2022-08-01T09:37:05.692Z,99291.81
2022-08-01T09:38:19.251Z,99290.23
2022-08-01T09:39:24.772Z,99289.39
2022-08-01T09:40:49.243Z,99302.13
2022-08-01T09:41:54.921Z,99293.47
2022-08-01T09:43:01.548Z,99297.40
2022-08-01T09:44:06.060Z,99296.91
2022-08-01T09:45:09.190Z,99299.45
2022-08-01T09:46:14.985Z,99294.59
2022-08-01T09:47:20.107Z,99296.49
2022-08-01T09:48:27.947Z,99286.88
2022-08-01T09:49:49.826Z,99296.83
2022-08-01T09:50:41.077Z,99289.01
2022-08-01T09:52:00.440Z,99298.24
2022-08-01T09:52:51.879Z,99290.02
2022-08-01T09:53:54.038Z,99287.59
2022-08-01T09:54:59.680Z,99295.67
2022-08-01T09:56:12.484Z,99295.91
2022-08-01T09:57:17.209Z,99290.64
2022-08-01T09:58:19.476Z,99284.51
2022-08-01T09:59:22.240Z,99291.45
2022-08-01T10:00:44.300Z,99283.23
2022-08-01T10:01:47.244Z,99288.10
2022-08-01T10:02:50.933Z,99287.80
2022-08-01T10:04:15.682Z,99287.53
2022-08-01T10:05:22.713Z,99286.80
2022-08-01T10:06:27.269Z,99291.38
2022-08-01T10:07:43.939Z,99279.44
2022-08-01T10:08:37.585Z,99279.36
2022-08-01T10:09:41.163Z,99281.62
2022-08-01T10:11:03.669Z,99279.36
2022-08-01T10:12:06.694Z,99282.47
2022-08-01T10:13:12.292Z,99280.61
2022-08-01T10:14:17.884Z,99283.72
2022-08-01T10:15:21.222Z,99286.02
2022-08-01T10:16:27.809Z,99274.53
2022-08-01T10:17:50.351Z,99277.09
2022-08-01T10:18:41.418Z,99280.88
2022-08-01T10:19:45.346Z,99272.55
2022-08-01T10:20:49.925Z,99278.72
2022-08-01T10:21:58.308Z,99281.30
2022-08-01T10:23:05.865Z,99281.34
2022-08-01T10:24:09.874Z,99280.58
2022-08-01T10:25:14.353Z,99274.88
2022-08-01T10:26:17.211Z,99269.93
2022-08-01T10:27:21.455Z,99278.80
2022-08-01T10:28:25.406Z,99280.85
2022-08-01T10:29:46.074Z,99289.71
2022-08-01T10:30:34.525Z,99288.88
2022-08-01T10:31:38.239Z,99288.42
2022-08-01T10:32:41.536Z,99284.23
2022-08-01T10:33:50.487Z,99285.47
2022-08-01T10:34:50.748Z,99279.52
2022-08-01T10:35:53.149Z,99282.55
2022-08-01T10:36:56.896Z,99285.00
2022-08-01T10:38:00.331Z,99282.49
2022-08-01T10:39:03.025Z,99277.99
2022-08-01T10:40:29.341Z,99283.98
2022-08-01T10:41:14.212Z,99280.33
2022-08-01T10:42:19.224Z,99278.95
2022-08-01T10:43:22.346Z,99285.14
2022-08-01T10:44:26.786Z,99278.73
2022-08-01T10:45:30.867Z,99279.58
2022-08-01T10:46:36.791Z,99282.86
2022-08-01T10:47:56.464Z,99278.94
2022-08-01T10:49:14.936Z,99282.25
2022-08-01T10:50:26.248Z,99270.97
2022-08-01T10:51:52.449Z,99273.23
2022-08-01T10:52:39.115Z,99274.06
2022-08-01T10:53:42.950Z,99270.78
2022-08-01T10:54:52.605Z,99277.98
2022-08-01T10:56:02.338Z,99277.78
2022-08-01T10:57:04.196Z,99284.17
2022-08-01T10:58:08.475Z,99279.84
2022-08-01T10:59:17.129Z,99278.39
2022-08-01T11:00:25.376Z,99271.39
2022-08-01T11:01:31.435Z,99270.77
2022-08-01T11:02:35.881Z,99261.05
2022-08-01T11:03:56.493Z,99262.51
2022-08-01T11:05:14.213Z,99263.97
2022-08-01T11:06:18.597Z,99266.44
2022-08-01T11:07:27.007Z,99273.27
2022-08-01T11:08:33.473Z,99265.81
2022-08-01T11:09:50.870Z,99267.44
2022-08-01T11:10:48.947Z,99274.42
2022-08-01T11:12:13.168Z,99267.98
2022-08-01T11:13:15.214Z,99271.92
2022-08-01T11:14:30.569Z,99264.88
2022-08-01T11:15:29.674Z,99258.91
2022-08-01T11:16:38.840Z,99265.38
2022-08-01T11:17:48.431Z,99264.97
2022-08-01T11:18:52.514Z,99267.44
2022-08-01T11:20:15.772Z,99266.95
2022-08-01T11:21:57.199Z,99271.90
2022-08-01T11:22:25.524Z,99268.20
2022-08-01T11:23:36.199Z,99267.41
2022-08-01T11:24:51.138Z,99268.20
2022-08-01T11:26:04.748Z,99269.47
2022-08-01T11:27:23.616Z,99268.20
2022-08-01T11:28:30.269Z,99270.88
2022-08-01T11:29:33.301Z,99266.92
2022-08-01T11:30:36.381Z,99270.36
2022-08-01T11:31:48.014Z,99264.99
2022-08-01T11:33:12.101Z,99268.14
2022-08-01T11:34:03.542Z,99275.91
2022-08-01T11:35:05.056Z,99267.98
2022-08-01T11:36:16.761Z,99273.52
2022-08-01T11:37:30.449Z,99268.35
2022-08-01T11:38:31.825Z,99269.59
2022-08-01T11:39:38.711Z,99270.70
2022-08-01T11:40:38.702Z,99273.74
2022-08-01T11:41:42.636Z,99267.19
2022-08-01T11:42:48.847Z,99265.58
2022-08-01T11:44:06.468Z,99262.43
2022-08-01T11:45:11.188Z,99279.92
2022-08-01T11:46:17.816Z,99271.89
2022-08-01T11:47:23.716Z,99266.59
2022-08-01T11:48:30.352Z,99262.86
2022-08-01T11:49:42.289Z,99273.30
2022-08-01T11:50:46.626Z,99270.00
2022-08-01T11:51:51.877Z,99274.48
2022-08-01T11:53:00.453Z,99262.31
2022-08-01T11:54:02.858Z,99270.44
2022-08-01T11:55:09.992Z,99267.98
2022-08-01T11:56:13.220Z,99267.96
2022-08-01T11:57:23.807Z,99258.45
2022-08-01T11:58:30.780Z,99267.00
2022-08-01T12:00:03.213Z,99266.59
2022-08-01T12:00:54.260Z,99272.34
2022-08-01T12:01:57.997Z,99264.84
2022-08-01T12:03:06.364Z,99258.38
2022-08-01T12:04:09.979Z,99259.13
2022-08-01T12:05:17.915Z,99258.89
2022-08-01T12:06:30.922Z,99257.20
2022-08-01T12:07:35.527Z,99256.41
2022-08-01T12:08:37.776Z,99254.81
2022-08-01T12:09:42.121Z,99257.88
2022-08-01T12:10:49.926Z,99259.33
2022-08-01T12:11:52.914Z,99258.59
2022-08-01T12:13:00.598Z,99254.06
2022-08-01T12:14:02.921Z,99251.97
2022-08-01T12:15:10.077Z,99244.22
2022-08-01T12:16:14.183Z,99253.03
2022-08-01T12:17:16.422Z,99253.78
2022-08-01T12:18:18.640Z,99257.52
2022-08-01T12:19:22.481Z,99261.25
2022-08-01T12:20:33.293Z,99259.00
2022-08-01T12:21:35.573Z,99248.38
2022-08-01T12:22:38.363Z,99262.50
2022-08-01T12:23:42.474Z,99266.07
2022-08-01T12:24:44.629Z,99265.50
2022-08-01T12:25:50.246Z,99273.80
2022-08-01T12:26:52.479Z,99266.16
2022-08-01T12:27:56.777Z,99276.06
2022-08-01T12:28:58.823Z,99262.68
2022-08-01T12:30:02.371Z,99273.59
2022-08-01T12:31:04.665Z,99260.44
2022-08-01T12:32:28.028Z,99265.80
2022-08-01T12:33:28.965Z,99266.50
2022-08-01T12:34:31.592Z,99260.11
2022-08-01T12:35:35.081Z,99267.98
2022-08-01T12:36:38.059Z,99262.30
2022-08-01T12:37:47.318Z,99268.50
2022-08-01T12:38:55.882Z,99270.48
2022-08-01T12:39:59.195Z,99269.22
2022-08-01T12:41:02.771Z,99262.30
2022-08-01T12:42:09.858Z,99256.26
2022-08-01T12:43:27.022Z,99253.39
2022-08-01T12:44:21.992Z,99259.61
2022-08-01T12:45:28.606Z,99267.45
2022-08-01T12:46:31.056Z,99259.12